Archiv-/Tagesdaten

--Timestamp---	Temp	Chill	HIndex	Humid	Dewpt	 Wind 	HiWind	WindDir	Rain 	Barom	Solar	 ET  	 UV 
--------------	----	-----	------	-----	-----	------	------	-------	-----	-----	-----	-----	----
20100818 00:00	14.1	14.1	14.1	72	9.1	5	11	225	0.0	1013.1	0	0.025	0.0
20100818 00:05	14.1	14.1	14.1	72	9.1	5	11	225	0.0	1013.0	0	0.000	0.0
20100818 00:10	14.1	14.1	14.1	72	9.1	5	11	225	0.0	1013.0	0	0.000	0.0
20100818 00:15	14.1	14.1	14.1	72	9.1	5	11	248	0.0	1012.9	0	0.000	0.0
20100818 00:20	14.1	14.1	14.1	72	9.1	5	11	248	0.0	1013.0	0	0.000	0.0
20100818 00:25	14.1	14.1	14.1	71	8.9	3	6	248	0.0	1013.1	0	0.000	0.0
20100818 00:30	14.0	14.0	14.0	71	8.8	5	10	248	0.0	1013.0	0	0.000	0.0
20100818 00:35	14.0	14.0	14.0	72	9.0	3	8	248	0.0	1013.1	0	0.000	0.0
20100818 00:40	13.8	13.8	13.8	73	9.1	3	6	248	0.0	1013.1	0	0.000	0.0
20100818 00:45	13.7	13.7	13.7	73	9.0	3	8	248	0.0	1013.2	0	0.000	0.0
20100818 00:50	13.6	13.6	13.6	73	8.9	5	8	248	0.0	1013.3	0	0.000	0.0
20100818 00:55	13.6	13.6	13.6	73	8.9	3	10	248	0.0	1013.3	0	0.000	0.0
20100818 01:00	13.6	13.6	13.6	73	8.8	5	10	248	0.0	1013.1	0	0.025	0.0
20100818 01:05	13.6	13.6	13.6	72	8.7	5	11	248	0.0	1012.9	0	0.000	0.0
20100818 01:10	13.7	13.7	13.7	72	8.8	5	10	225	0.0	1012.8	0	0.000	0.0
20100818 01:15	13.8	13.8	13.8	72	8.8	6	13	225	0.0	1012.8	0	0.000	0.0
20100818 01:20	13.8	13.8	13.8	71	8.7	6	11	248	0.0	1012.9	0	0.000	0.0
20100818 01:25	13.9	13.9	13.9	71	8.7	6	10	248	0.0	1012.8	0	0.000	0.0
20100818 01:30	13.9	13.9	13.9	71	8.8	6	14	225	0.0	1012.8	0	0.000	0.0
20100818 01:35	14.0	14.0	14.0	71	8.8	8	11	248	0.0	1012.8	0	0.000	0.0
20100818 01:40	14.0	14.0	14.0	71	8.8	5	11	248	0.0	1012.8	0	0.000	0.0
20100818 01:45	14.1	14.1	14.1	71	8.9	5	10	248	0.0	1012.8	0	0.000	0.0
20100818 01:50	14.1	14.1	14.1	71	8.9	5	10	248	0.0	1012.8	0	0.000	0.0
20100818 01:55	14.1	14.1	14.1	71	8.9	5	10	248	0.0	1012.8	0	0.000	0.0
20100818 02:00	14.1	14.1	14.1	70	8.7	5	8	248	0.0	1012.8	0	0.025	0.0
20100818 02:05	14.2	14.2	14.2	71	9.0	5	8	248	0.0	1012.7	0	0.000	0.0
20100818 02:10	14.1	14.1	14.1	71	8.9	3	8	248	0.0	1012.8	0	0.000	0.0
20100818 02:15	14.1	14.1	14.1	71	8.9	5	11	248	0.0	1012.7	0	0.000	0.0
20100818 02:20	14.1	14.1	14.1	71	8.9	5	8	248	0.0	1012.7	0	0.000	0.0
20100818 02:25	14.1	14.1	14.1	71	8.9	5	8	248	0.0	1012.6	0	0.000	0.0
20100818 02:30	14.1	14.1	14.1	71	8.9	5	8	248	0.0	1012.6	0	0.000	0.0
20100818 02:35	14.1	14.1	14.1	71	8.9	5	10	248	0.0	1012.5	0	0.000	0.0
20100818 02:40	14.1	14.1	14.1	71	8.9	3	8	248	0.0	1012.5	0	0.000	0.0
20100818 02:45	14.0	14.0	14.0	72	9.0	5	8	248	0.0	1012.5	0	0.000	0.0
20100818 02:50	13.9	13.9	13.9	73	9.1	3	6	248	0.0	1012.4	0	0.000	0.0
20100818 02:55	13.7	13.7	13.7	74	9.2	3	6	248	0.0	1012.4	0	0.000	0.0
20100818 03:00	13.6	13.6	13.6	74	9.1	5	8	248	0.0	1012.4	0	0.025	0.0
20100818 03:05	13.6	13.6	13.6	74	9.0	5	10	225	0.0	1012.4	0	0.000	0.0
20100818 03:10	13.6	13.6	13.6	74	9.0	3	8	225	0.0	1012.2	0	0.000	0.0
20100818 03:15	13.6	13.6	13.6	74	9.0	5	8	225	0.0	1012.1	0	0.000	0.0
20100818 03:20	13.6	13.6	13.6	74	9.1	6	10	225	0.0	1012.1	0	0.000	0.0
20100818 03:25	13.6	13.6	13.6	74	9.1	5	6	225	0.0	1012.1	0	0.000	0.0
20100818 03:30	13.7	13.7	13.7	74	9.1	5	8	225	0.0	1012.1	0	0.000	0.0
20100818 03:35	13.7	13.7	13.7	74	9.1	5	8	225	0.0	1012.1	0	0.000	0.0
20100818 03:40	13.7	13.7	13.7	75	9.3	5	8	225	0.0	1012.0	0	0.000	0.0
20100818 03:45	13.6	13.6	13.6	75	9.3	5	10	225	0.0	1011.9	0	0.000	0.0
20100818 03:50	13.6	13.6	13.6	76	9.4	3	11	202	0.0	1011.9	0	0.000	0.0
20100818 03:55	13.5	13.5	13.5	76	9.4	3	8	202	0.0	1011.8	0	0.000	0.0
20100818 04:00	13.4	13.4	13.4	76	9.3	2	6	202	0.0	1011.9	0	0.025	0.0
20100818 04:05	13.3	13.3	13.3	77	9.4	2	5	202	0.0	1011.9	0	0.000	0.0
20100818 04:10	13.3	13.3	13.3	78	9.5	0	3	202	0.0	1011.9	0	0.000	0.0
20100818 04:15	13.2	13.2	13.2	78	9.4	2	6	202	0.0	1011.9	0	0.000	0.0
20100818 04:20	13.1	13.1	13.1	79	9.5	2	5	202	0.0	1011.9	0	0.000	0.0
20100818 04:25	13.0	13.0	13.0	79	9.4	2	6	202	0.0	1011.9	0	0.000	0.0
20100818 04:30	12.9	12.9	12.9	80	9.6	2	6	202	0.0	1011.8	0	0.000	0.0
20100818 04:35	12.8	12.8	12.8	81	9.7	2	6	202	0.0	1011.7	0	0.000	0.0
20100818 04:40	12.8	12.8	12.8	81	9.6	3	6	202	0.0	1011.7	0	0.000	0.0
20100818 04:45	12.7	12.7	12.7	82	9.7	3	6	202	0.0	1011.7	0	0.000	0.0
20100818 04:50	12.7	12.7	12.7	82	9.7	3	6	202	0.0	1011.7	0	0.000	0.0
20100818 04:55	12.6	12.6	12.6	82	9.6	2	5	202	0.0	1011.7	0	0.000	0.0
20100818 05:00	12.6	12.6	12.6	83	9.7	3	10	202	0.0	1011.6	0	0.025	0.0
20100818 05:05	12.6	12.6	12.6	83	9.7	2	5	202	0.0	1011.5	0	0.000	0.0
20100818 05:10	12.5	12.5	12.5	83	9.7	3	8	202	0.0	1011.5	0	0.000	0.0
20100818 05:15	12.6	12.6	12.6	84	9.9	3	8	202	0.0	1011.5	0	0.000	0.0
20100818 05:20	12.6	12.6	12.6	84	9.9	2	6	202	0.0	1011.4	0	0.000	0.0
20100818 05:25	12.6	12.6	12.6	84	9.9	2	5	202	0.0	1011.3	0	0.000	0.0
20100818 05:30	12.7	12.7	12.7	84	10.0	2	6	202	0.0	1011.2	0	0.000	0.0
20100818 05:35	12.7	12.7	12.7	84	10.0	2	5	202	0.0	1011.1	0	0.000	0.0
20100818 05:40	12.7	12.7	12.7	84	10.0	2	3	202	0.0	1011.1	0	0.000	0.0
20100818 05:45	12.7	12.7	12.7	83	9.9	2	5	202	0.0	1011.1	0	0.000	0.0
20100818 05:50	12.7	12.7	12.7	84	10.1	3	6	202	0.0	1011.1	0	0.000	0.0
20100818 05:55	12.7	12.7	12.7	83	9.9	2	6	202	0.0	1011.0	0	0.000	0.0
20100818 06:00	12.7	12.7	12.7	83	9.9	2	5	202	0.0	1010.9	0	0.025	0.0
20100818 06:05	12.7	12.7	12.7	83	9.9	3	8	202	0.0	1011.1	0	0.000	0.0
20100818 06:10	12.7	12.7	12.7	83	9.9	2	6	202	0.0	1011.2	0	0.000	0.0
20100818 06:15	12.7	12.7	12.7	83	9.9	0	5	202	0.0	1011.2	0	0.000	0.0
20100818 06:20	12.7	12.7	12.7	83	9.9	0	3	202	0.0	1011.1	6	0.000	0.0
20100818 06:25	12.7	12.7	12.7	83	9.9	0	3	202	0.0	1011.1	11	0.000	0.0
20100818 06:30	12.7	12.7	12.7	83	9.9	2	8	202	0.0	1011.0	13	0.000	0.0
20100818 06:35	12.7	12.7	12.7	83	9.9	5	8	180	0.0	1011.0	18	0.000	0.0
20100818 06:40	12.7	12.7	12.7	83	9.9	3	10	180	0.0	1010.9	19	0.000	0.0
20100818 06:45	12.8	12.8	12.8	83	10.0	2	6	180	0.0	1011.0	21	0.000	0.0
20100818 06:50	12.8	12.8	12.8	83	10.0	5	10	180	0.0	1011.1	28	0.000	0.0
20100818 06:55	12.8	12.8	12.8	82	9.8	5	8	180	0.0	1011.1	49	0.000	0.0
20100818 07:00	12.9	12.9	12.9	82	9.9	3	8	180	0.0	1011.1	67	0.025	0.0
20100818 07:05	13.2	13.2	13.2	81	10.0	5	8	180	0.0	1011.2	78	0.000	0.0
20100818 07:10	13.3	13.3	13.3	80	10.0	6	11	202	0.0	1011.3	67	0.000	0.0
20100818 07:15	13.6	13.6	13.6	79	10.0	6	10	202	0.0	1011.3	55	0.000	0.0
20100818 07:20	13.7	13.7	13.7	79	10.1	6	10	202	0.0	1011.2	40	0.000	0.0
20100818 07:25	13.8	13.8	13.8	78	10.0	6	11	202	0.0	1011.1	36	0.000	0.0
20100818 07:30	13.8	13.8	13.8	78	10.1	5	10	180	0.0	1011.1	60	0.000	0.0
20100818 07:35	13.9	13.9	13.9	77	9.9	6	11	202	0.0	1011.1	71	0.000	0.0
20100818 07:40	14.1	14.1	14.1	77	10.1	6	11	202	0.0	1011.1	83	0.000	0.0
20100818 07:45	14.2	14.2	14.2	77	10.2	5	13	202	0.0	1011.1	79	0.000	0.0
20100818 07:50	14.2	14.2	14.2	77	10.2	6	13	202	0.0	1011.2	75	0.000	0.0
20100818 07:55	14.3	14.3	14.3	77	10.3	5	13	202	0.0	1011.2	78	0.000	0.0
20100818 08:00	14.4	14.4	14.4	76	10.2	6	11	202	0.0	1011.1	76	0.051	0.0
20100818 08:05	14.5	14.5	14.5	76	10.3	5	8	202	0.0	1011.2	80	0.000	0.0
20100818 08:10	14.7	14.7	14.7	76	10.5	5	10	202	0.0	1011.2	92	0.000	0.0
20100818 08:15	14.8	14.8	14.8	75	10.4	5	8	202	0.0	1011.0	89	0.000	0.0
20100818 08:20	15.0	15.0	15.0	75	10.6	3	8	202	0.0	1011.0	87	0.000	0.0
20100818 08:25	15.0	15.0	15.0	74	10.4	3	6	202	0.0	1011.0	85	0.000	0.0
20100818 08:30	15.1	15.1	15.1	74	10.5	3	10	202	0.0	1011.0	88	0.000	0.1
20100818 08:35	15.3	15.3	15.3	73	10.5	3	8	202	0.0	1010.9	82	0.000	0.2
20100818 08:40	15.4	15.4	15.4	72	10.4	3	6	202	0.0	1010.8	96	0.000	0.5
20100818 08:45	15.5	15.5	15.5	72	10.5	0	5	202	0.0	1010.6	97	0.000	0.6
20100818 08:50	15.7	15.7	15.7	71	10.4	5	10	202	0.0	1010.8	99	0.000	0.6
20100818 08:55	15.8	15.8	15.8	70	10.4	5	8	225	0.0	1010.7	122	0.000	0.8
20100818 09:00	16.0	16.0	16.0	70	10.5	5	10	225	0.0	1010.6	152	0.076	0.9
20100818 09:05	16.2	16.2	16.2	69	10.5	5	8	225	0.0	1010.7	163	0.000	1.0
20100818 09:10	16.4	16.4	16.4	69	10.7	8	16	225	0.0	1010.7	170	0.000	1.1
20100818 09:15	16.6	16.6	16.6	67	10.4	8	14	225	0.0	1010.7	178	0.000	1.1
20100818 09:20	16.7	16.7	16.7	67	10.6	6	14	248	0.0	1010.7	175	0.000	1.1
20100818 09:25	16.8	16.8	16.8	67	10.6	6	14	248	0.0	1010.6	168	0.000	1.1
20100818 09:30	16.9	16.9	16.9	67	10.7	6	11	248	0.0	1010.6	174	0.000	1.2
20100818 09:35	16.9	16.9	16.9	67	10.8	8	16	248	0.0	1010.5	159	0.000	1.1
20100818 09:40	17.1	17.1	17.1	66	10.7	8	14	270	0.0	1010.6	132	0.000	1.0
20100818 09:45	17.1	17.1	17.1	66	10.7	6	11	270	0.0	1010.7	102	0.000	0.8
20100818 09:50	17.0	17.0	17.0	67	10.8	8	16	248	0.0	1010.7	93	0.000	0.7
20100818 09:55	16.9	16.9	16.9	69	11.2	8	14	270	0.0	1010.8	100	0.000	0.8
20100818 10:00	16.7	16.7	16.7	69	11.0	8	18	270	0.0	1010.7	116	0.102	1.0
20100818 10:05	16.7	16.7	16.7	68	10.7	8	18	248	0.0	1010.8	116	0.000	1.0
20100818 10:10	16.7	16.7	16.7	69	10.9	6	11	292	0.0	1010.8	111	0.000	0.9
20100818 10:15	16.7	16.7	16.7	69	10.9	3	10	292	0.0	1010.8	109	0.000	1.0
20100818 10:20	16.7	16.7	16.7	69	10.9	3	8	270	0.0	1010.8	112	0.000	1.0
20100818 10:25	16.7	16.7	16.7	69	11.0	6	10	270	0.0	1011.0	126	0.000	1.1
20100818 10:30	16.8	16.8	16.8	70	11.3	5	8	270	0.0	1011.0	145	0.000	1.3
20100818 10:35	16.8	16.8	16.8	70	11.3	3	8	270	0.0	1011.1	163	0.000	1.5
20100818 10:40	16.9	16.9	16.9	70	11.4	6	11	248	0.0	1011.2	177	0.000	1.6
20100818 10:45	17.1	17.1	17.1	67	10.9	6	11	248	0.0	1011.1	177	0.000	1.6
20100818 10:50	17.2	17.2	17.2	66	10.8	5	8	248	0.0	1011.1	177	0.000	1.6
20100818 10:55	17.3	17.3	17.3	68	11.4	3	8	248	0.0	1011.1	174	0.000	1.6
20100818 11:00	17.5	17.5	17.5	68	11.5	2	5	248	0.0	1011.2	204	0.102	1.9
20100818 11:05	17.7	17.7	17.7	67	11.5	3	10	248	0.0	1011.3	250	0.000	2.3
20100818 11:10	17.8	17.8	17.8	66	11.3	6	11	225	0.0	1011.2	276	0.000	2.6
20100818 11:15	17.9	17.9	17.9	66	11.4	6	11	248	0.0	1011.1	268	0.000	2.7
20100818 11:20	18.0	18.0	18.0	66	11.5	6	13	225	0.0	1011.1	290	0.000	2.9
20100818 11:25	18.1	18.1	18.1	64	11.2	6	14	248	0.0	1011.0	259	0.000	2.7
20100818 11:30	18.2	18.2	18.2	65	11.5	5	10	248	0.0	1011.1	222	0.000	2.4
20100818 11:35	18.2	18.2	18.2	64	11.2	6	11	270	0.0	1011.1	218	0.000	2.3
20100818 11:40	18.2	18.2	18.2	66	11.8	5	8	248	0.0	1011.1	233	0.000	2.4
20100818 11:45	18.3	18.3	18.3	65	11.6	5	10	225	0.0	1011.1	215	0.000	2.3
20100818 11:50	18.3	18.3	18.3	65	11.6	5	11	225	0.0	1011.2	198	0.000	2.1
20100818 11:55	18.3	18.3	18.3	65	11.6	6	11	292	0.0	1011.1	182	0.000	1.9
20100818 12:00	18.2	18.2	18.2	65	11.5	3	8	292	0.0	1011.1	174	0.152	1.8
20100818 12:05	18.2	18.2	18.2	66	11.7	3	8	270	0.0	1011.1	192	0.000	2.1
20100818 12:10	18.2	18.2	18.2	67	11.9	2	6	270	0.0	1011.2	201	0.000	2.1
20100818 12:15	18.2	18.2	18.2	70	12.7	2	6	270	0.0	1011.2	193	0.000	2.0
20100818 12:20	18.2	18.2	18.2	69	12.4	2	6	270	0.0	1011.2	175	0.000	1.8
20100818 12:25	18.1	18.1	18.1	71	12.8	2	6	292	0.0	1011.1	164	0.000	1.7
20100818 12:30	17.9	17.9	17.9	70	12.4	3	8	292	0.0	1011.1	184	0.000	2.0
20100818 12:35	17.8	17.8	17.8	72	12.7	3	8	292	0.0	1011.1	189	0.000	2.0
20100818 12:40	17.7	17.7	17.7	69	12.0	5	14	315	0.0	1011.1	189	0.000	2.1
20100818 12:45	17.7	17.7	17.7	70	12.2	6	10	270	0.0	1011.2	174	0.000	1.9
20100818 12:50	17.7	17.7	17.7	71	12.3	5	10	292	0.0	1011.2	169	0.000	1.8
20100818 12:55	17.7	17.7	17.7	71	12.3	6	10	292	0.0	1011.2	180	0.000	1.9
20100818 13:00	17.7	17.7	17.7	69	11.9	8	18	292	0.0	1011.2	202	0.127	2.2
20100818 13:05	17.6	17.6	17.6	70	12.1	6	14	270	0.0	1011.2	207	0.000	2.2
20100818 13:10	17.7	17.7	17.7	70	12.2	5	10	270	0.0	1011.2	205	0.000	2.2
20100818 13:15	17.8	17.8	17.8	71	12.4	5	8	292	0.0	1011.1	205	0.000	2.2
20100818 13:20	17.8	17.8	17.8	70	12.2	5	8	270	0.0	1011.2	220	0.000	2.4
20100818 13:25	17.8	17.8	17.8	71	12.5	3	6	270	0.0	1011.3	217	0.000	2.4
20100818 13:30	17.9	17.9	17.9	69	12.2	5	8	270	0.0	1011.3	224	0.000	2.5
20100818 13:35	18.0	18.0	18.0	68	12.0	5	10	270	0.0	1011.2	248	0.000	2.7
20100818 13:40	18.1	18.1	18.1	69	12.3	3	8	270	0.0	1011.1	229	0.000	2.5
20100818 13:45	18.1	18.1	18.1	69	12.3	5	8	315	0.0	1010.9	206	0.000	2.3
20100818 13:50	18.2	18.2	18.2	67	12.0	5	11	270	0.0	1011.0	222	0.000	2.4
20100818 13:55	18.2	18.2	18.2	67	12.0	5	8	270	0.0	1011.0	265	0.000	2.9
20100818 14:00	18.3	18.3	18.3	67	12.1	5	14	270	0.0	1011.1	268	0.152	2.8
20100818 14:05	18.4	18.4	18.4	67	12.2	6	11	270	0.0	1010.9	251	0.000	2.8
20100818 14:10	18.6	18.6	18.6	68	12.5	5	8	270	0.0	1010.9	266	0.000	2.9
20100818 14:15	18.7	18.7	18.7	66	12.2	6	11	270	0.0	1010.8	274	0.000	2.9
20100818 14:20	18.8	18.8	18.8	64	11.9	6	13	248	0.0	1010.9	253	0.000	2.7
20100818 14:25	18.9	18.9	18.9	63	11.7	6	16	248	0.0	1010.9	259	0.000	2.8
20100818 14:30	18.9	18.9	18.9	63	11.7	6	11	248	0.0	1010.7	251	0.000	2.7
20100818 14:35	18.9	18.9	18.9	64	12.0	8	14	270	0.0	1010.7	259	0.000	2.7
20100818 14:40	19.1	19.1	19.1	65	12.3	5	11	270	0.0	1010.7	296	0.000	3.0
20100818 14:45	19.2	19.2	19.2	64	12.2	8	18	248	0.0	1010.6	303	0.000	3.1
20100818 14:50	19.2	19.2	19.2	64	12.2	6	13	270	0.0	1010.7	302	0.000	3.0
20100818 14:55	19.3	19.3	19.3	64	12.3	6	13	270	0.0	1010.7	230	0.000	2.6
20100818 15:00	19.3	19.3	19.3	63	12.1	5	11	248	0.0	1010.4	204	0.178	1.9
20100818 15:05	19.3	19.3	19.3	62	11.8	6	10	225	0.0	1010.4	206	0.000	2.1
20100818 15:10	19.3	19.3	19.3	63	12.1	6	13	225	0.0	1010.5	207	0.000	2.1
20100818 15:15	19.2	19.2	19.2	64	12.2	8	16	270	0.0	1010.5	220	0.000	2.2
20100818 15:20	19.2	19.2	19.2	64	12.2	5	8	270	0.0	1010.4	197	0.000	2.0
20100818 15:25	19.2	19.2	19.2	64	12.2	8	14	270	0.0	1010.3	187	0.000	1.8
20100818 15:30	19.2	19.2	19.2	62	11.8	6	13	270	0.0	1010.4	174	0.000	1.7
20100818 15:35	19.2	19.2	19.2	62	11.7	8	16	248	0.0	1010.4	190	0.000	1.8
20100818 15:40	19.2	19.2	19.2	64	12.2	5	10	248	0.0	1010.4	182	0.000	1.8
20100818 15:45	19.2	19.2	19.2	63	12.0	8	14	248	0.0	1010.5	210	0.000	1.9
20100818 15:50	19.3	19.3	19.3	63	12.1	6	13	248	0.0	1010.5	169	0.000	1.5
20100818 15:55	19.3	19.3	19.3	62	11.8	6	14	248	0.0	1010.4	134	0.000	1.2
20100818 16:00	19.2	19.2	19.2	63	12.0	10	18	248	0.0	1010.5	120	0.152	1.1
20100818 16:05	19.2	19.2	19.2	62	11.7	13	19	270	0.0	1010.5	114	0.000	1.0
20100818 16:10	19.1	19.1	19.1	63	11.8	11	21	248	0.0	1010.7	104	0.000	0.9
20100818 16:15	19.0	19.0	19.0	63	11.8	10	18	270	0.0	1010.7	104	0.000	0.9
20100818 16:20	18.9	18.9	18.9	61	11.3	13	27	248	0.0	1010.7	106	0.000	0.9
20100818 16:25	18.9	18.9	18.9	62	11.4	11	21	248	0.0	1010.7	125	0.000	1.1
20100818 16:30	18.9	18.9	18.9	59	10.7	18	43	248	0.0	1010.7	149	0.000	1.3
20100818 16:35	18.9	18.9	18.9	59	10.7	19	32	270	0.0	1010.8	160	0.000	1.3
20100818 16:40	18.9	18.9	18.9	62	11.5	14	26	270	0.0	1010.8	172	0.000	1.4
20100818 16:45	18.9	18.9	18.9	62	11.5	13	26	270	0.0	1010.7	142	0.000	1.2
20100818 16:50	18.9	18.9	18.9	61	11.2	14	24	248	0.0	1010.7	112	0.000	0.9
20100818 16:55	18.8	18.8	18.8	61	11.1	14	26	270	0.0	1010.7	91	0.000	0.7
20100818 17:00	18.8	18.8	18.8	62	11.3	10	18	270	0.0	1010.6	81	0.152	0.6
20100818 17:05	18.7	18.7	18.7	62	11.3	10	18	270	0.0	1010.7	70	0.000	0.5
20100818 17:10	18.6	18.6	18.6	62	11.2	11	23	248	0.0	1010.8	85	0.000	0.7
20100818 17:15	18.6	18.6	18.6	63	11.4	8	14	248	0.0	1010.8	101	0.000	0.7
20100818 17:20	18.6	18.6	18.6	64	11.7	10	18	248	0.0	1010.7	119	0.000	0.8
20100818 17:25	18.7	18.7	18.7	64	11.7	8	18	248	0.0	1010.7	97	0.000	0.6
20100818 17:30	18.7	18.7	18.7	65	11.9	8	18	270	0.0	1010.7	92	0.000	0.6
20100818 17:35	18.7	18.7	18.7	64	11.7	10	19	270	0.0	1010.7	102	0.000	0.6
20100818 17:40	18.7	18.7	18.7	63	11.5	10	16	248	0.0	1010.7	86	0.000	0.5
20100818 17:45	18.7	18.7	18.7	64	11.7	8	14	270	0.0	1010.8	70	0.000	0.1
20100818 17:50	18.6	18.6	18.6	64	11.6	8	14	270	0.0	1010.7	56	0.000	0.0
20100818 17:55	18.5	18.5	18.5	64	11.6	8	14	270	0.0	1010.7	52	0.000	0.0
20100818 18:00	18.4	18.4	18.4	64	11.5	8	16	248	0.0	1010.6	68	0.102	0.0
20100818 18:05	18.4	18.4	18.4	64	11.5	8	18	248	0.0	1010.6	69	0.000	0.0
20100818 18:10	18.4	18.4	18.4	64	11.5	8	16	225	0.0	1010.5	76	0.000	0.0
20100818 18:15	18.5	18.5	18.5	63	11.3	11	31	270	0.0	1010.6	72	0.000	0.0
20100818 18:20	18.5	18.5	18.5	64	11.6	10	19	248	0.0	1010.6	47	0.000	0.0
20100818 18:25	18.4	18.4	18.4	64	11.5	8	19	270	0.0	1010.7	51	0.000	0.0
20100818 18:30	18.4	18.4	18.4	62	11.0	18	37	270	0.0	1010.6	59	0.000	0.0
20100818 18:35	18.4	18.4	18.4	62	11.0	16	32	270	0.0	1010.6	62	0.000	0.0
20100818 18:40	18.4	18.4	18.4	63	11.3	16	29	270	0.0	1010.6	64	0.000	0.0
20100818 18:45	18.4	18.4	18.4	63	11.2	14	23	270	0.0	1010.7	61	0.000	0.0
20100818 18:50	18.3	18.3	18.3	64	11.4	11	23	270	0.0	1010.7	49	0.000	0.0
20100818 18:55	18.3	18.3	18.3	64	11.3	13	26	270	0.0	1010.7	48	0.000	0.0
20100818 19:00	18.2	18.2	18.2	65	11.5	13	23	270	0.0	1010.7	48	0.102	0.0
20100818 19:05	18.2	18.2	18.2	65	11.5	14	26	270	0.0	1010.6	43	0.000	0.0
20100818 19:10	18.1	18.1	18.1	65	11.4	13	23	270	0.0	1010.6	40	0.000	0.0
20100818 19:15	18.1	18.1	18.1	66	11.6	11	26	270	0.0	1010.6	35	0.000	0.0
20100818 19:20	18.0	18.0	18.0	65	11.3	13	29	248	0.0	1010.6	33	0.000	0.0
20100818 19:25	18.0	18.0	18.0	65	11.3	14	24	248	0.0	1010.6	31	0.000	0.0
20100818 19:30	18.0	18.0	18.0	66	11.5	14	26	270	0.0	1010.7	27	0.000	0.0
20100818 19:35	17.9	17.9	17.9	66	11.5	13	27	270	0.0	1010.6	31	0.000	0.0
20100818 19:40	17.9	17.9	17.9	67	11.7	11	23	270	0.0	1010.7	29	0.000	0.0
20100818 19:45	17.8	17.8	17.8	67	11.6	13	21	270	0.0	1010.6	22	0.000	0.0
20100818 19:50	17.8	17.8	17.8	67	11.6	11	21	270	0.0	1010.7	15	0.000	0.0
20100818 19:55	17.7	17.7	17.7	67	11.5	11	24	270	0.0	1010.7	11	0.000	0.0
20100818 20:00	17.7	17.7	17.7	68	11.7	6	14	270	0.0	1010.7	8	0.076	0.0
20100818 20:05	17.6	17.6	17.6	68	11.6	8	16	270	0.0	1010.6	6	0.000	0.0
20100818 20:10	17.6	17.6	17.6	69	11.8	6	11	248	0.0	1010.7	5	0.000	0.0
20100818 20:15	17.5	17.5	17.5	69	11.7	5	10	248	0.0	1010.7	7	0.000	0.0
20100818 20:20	17.4	17.4	17.4	69	11.7	5	8	248	0.0	1010.8	1	0.000	0.0
20100818 20:25	17.4	17.4	17.4	69	11.6	3	8	248	0.0	1010.8	0	0.000	0.0
20100818 20:30	17.3	17.3	17.3	69	11.6	3	10	248	0.0	1010.8	0	0.000	0.0
20100818 20:35	17.3	17.3	17.3	70	11.8	3	6	225	0.0	1010.9	0	0.000	0.0
20100818 20:40	17.3	17.3	17.3	69	11.6	8	18	248	0.0	1010.9	0	0.000	0.0
20100818 20:45	17.3	17.3	17.3	69	11.6	5	11	270	0.0	1010.9	0	0.000	0.0
20100818 20:50	17.3	17.3	17.3	69	11.6	8	16	248	0.0	1010.9	0	0.000	0.0
20100818 20:55	17.3	17.3	17.3	69	11.6	6	13	225	0.0	1011.0	0	0.000	0.0
20100818 21:00	17.3	17.3	17.3	69	11.6	5	11	248	0.0	1011.0	0	0.025	0.0
20100818 21:05	17.3	17.3	17.3	69	11.5	5	10	248	0.0	1011.1	0	0.000	0.0
20100818 21:10	17.2	17.2	17.2	70	11.7	3	6	225	0.0	1011.1	0	0.000	0.0
20100818 21:15	17.2	17.2	17.2	70	11.6	3	8	225	0.0	1011.1	0	0.000	0.0
20100818 21:20	17.1	17.1	17.1	71	11.8	5	11	225	0.0	1011.2	0	0.000	0.0
20100818 21:25	16.9	16.9	16.9	71	11.6	3	8	225	0.0	1011.2	0	0.000	0.0
20100818 21:30	16.8	16.8	16.8	72	11.8	5	10	225	0.0	1011.2	0	0.000	0.0
20100818 21:35	16.7	16.7	16.7	72	11.6	5	8	225	0.0	1011.2	0	0.000	0.0
20100818 21:40	16.6	16.6	16.6	73	11.7	5	8	225	0.0	1011.2	0	0.000	0.0
20100818 21:45	16.4	16.4	16.4	73	11.6	3	6	225	0.0	1011.2	0	0.000	0.0
20100818 21:50	16.3	16.3	16.3	74	11.7	5	6	225	0.0	1011.4	0	0.000	0.0
20100818 21:55	16.2	16.2	16.2	75	11.7	3	8	225	0.0	1011.4	0	0.000	0.0
20100818 22:00	16.0	16.0	16.0	76	11.8	5	10	225	0.0	1011.4	0	0.025	0.0
20100818 22:05	15.9	15.9	15.9	77	11.9	5	10	202	0.0	1011.2	0	0.000	0.0
20100818 22:10	15.8	15.8	15.8	77	11.8	5	8	202	0.0	1011.2	0	0.000	0.0
20100818 22:15	15.8	15.8	15.8	78	11.9	5	10	202	0.0	1011.3	0	0.000	0.0
20100818 22:20	15.7	15.7	15.7	78	11.8	6	10	202	0.0	1011.4	0	0.000	0.0
20100818 22:25	15.7	15.7	15.7	78	11.8	5	10	202	0.0	1011.4	0	0.000	0.0
20100818 22:30	15.6	15.6	15.6	79	12.0	5	8	202	0.0	1011.5	0	0.000	0.0
20100818 22:35	15.6	15.6	15.6	79	12.0	5	10	202	0.0	1011.5	0	0.000	0.0
20100818 22:40	15.6	15.6	15.6	79	11.9	3	8	202	0.0	1011.6	0	0.000	0.0
20100818 22:45	15.6	15.6	15.6	79	11.9	5	10	225	0.0	1011.6	0	0.000	0.0
20100818 22:50	15.6	15.6	15.6	79	11.9	5	8	225	0.0	1011.6	0	0.000	0.0
20100818 22:55	15.6	15.6	15.6	79	12.0	3	8	225	0.0	1011.7	0	0.000	0.0
20100818 23:00	15.6	15.6	15.6	79	12.0	5	8	225	0.0	1011.8	0	0.025	0.0
20100818 23:05	15.6	15.6	15.6	79	12.0	5	8	225	0.0	1011.8	0	0.000	0.0
20100818 23:10	15.7	15.7	15.7	79	12.0	6	10	202	0.0	1011.8	0	0.000	0.0
20100818 23:15	15.7	15.7	15.7	79	12.0	5	8	202	0.0	1011.9	0	0.000	0.0
20100818 23:20	15.7	15.7	15.7	79	12.0	5	8	202	0.0	1012.0	0	0.000	0.0
20100818 23:25	15.6	15.6	15.6	80	12.2	5	10	202	0.0	1012.0	0	0.000	0.0
20100818 23:30	15.6	15.6	15.6	80	12.2	5	11	202	0.0	1012.0	0	0.000	0.0
20100818 23:35	15.6	15.6	15.6	80	12.2	6	11	202	0.0	1012.0	0	0.000	0.0
20100818 23:40	15.6	15.6	15.6	79	12.0	6	10	225	0.0	1011.9	0	0.000	0.0
20100818 23:45	15.7	15.7	15.7	79	12.0	6	10	225	0.0	1012.0	0	0.000	0.0
20100818 23:50	15.8	15.8	15.8	77	11.8	6	11	225	0.0	1012.1	0	0.000	0.0
20100818 23:55	16.0	16.0	16.0	77	12.0	8	16	248	0.0	1012.0	0	0.000	0.0
--------------------------------------------------------------------------------------------------------------------
Please note the license to use and transfer of this data:
http://creativecommons.org/licenses/by-nc-sa/3.0/deed.en

Bitte beachten sie die Lizenz zur Verwertung und Weitergabe der Daten:
http://creativecommons.org/licenses/by-nc-sa/3.0/deed.de



Please note the license to use and transfer of this data:
http://creativecommons.org/licenses/by-nc-sa/3.0/deed.en

Bitte beachten sie die Lizenz zur Verwertung und Weitergabe der Daten:
http://creativecommons.org/licenses/by-nc-sa/3.0/deed.de

zurück zur Übersicht der Archivdaten (Monats und Tagesdaten)

Cookies helfen bei der Bereitstellung von Inhalten. Durch die Nutzung dieser Seiten erklärst du dich damit einverstanden, dass Cookies auf deinem Rechner gespeichert werden. Weitere Information